createdAt,value
2022-12-25T00:01:12.824Z,5.95
2022-12-25T00:03:39.753Z,5.97
2022-12-25T00:06:07.115Z,6.05
2022-12-25T00:08:34.234Z,5.99
2022-12-25T00:11:06.262Z,6.04
2022-12-25T00:13:33.651Z,6.12
2022-12-25T00:16:00.556Z,6.14
2022-12-25T00:18:27.426Z,6.20
2022-12-25T00:20:58.410Z,6.34
2022-12-25T00:23:25.595Z,6.34
2022-12-25T00:25:53.463Z,6.35
2022-12-25T00:28:21.057Z,6.40
2022-12-25T00:30:47.896Z,6.45
2022-12-25T00:33:15.079Z,6.49
2022-12-25T00:35:41.949Z,6.54
2022-12-25T00:38:08.812Z,6.50
2022-12-25T00:40:42.956Z,6.45
2022-12-25T00:43:09.956Z,6.50
2022-12-25T00:45:36.711Z,6.56
2022-12-25T00:48:04.027Z,6.57
2022-12-25T00:50:30.752Z,6.64
2022-12-25T00:52:57.555Z,6.74
2022-12-25T00:55:24.255Z,6.72
2022-12-25T00:57:50.983Z,6.79
2022-12-25T01:00:17.875Z,6.72
2022-12-25T01:02:44.891Z,6.81
2022-12-25T01:05:11.858Z,6.80
2022-12-25T01:07:38.585Z,6.63
2022-12-25T01:10:24.530Z,6.64
2022-12-25T01:12:51.992Z,6.66
2022-12-25T01:15:19.382Z,6.57
2022-12-25T01:17:46.671Z,6.45
2022-12-25T01:20:15.688Z,6.54
2022-12-25T01:22:42.843Z,6.56
2022-12-25T01:25:10.764Z,6.54
2022-12-25T01:27:38.153Z,6.61
2022-12-25T01:30:06.186Z,6.52
2022-12-25T01:32:33.215Z,6.54
2022-12-25T01:34:59.950Z,6.58
2022-12-25T01:37:26.829Z,6.64
2022-12-25T01:39:53.957Z,6.60
2022-12-25T01:42:23.678Z,6.52
2022-12-25T01:44:50.412Z,6.60
2022-12-25T01:47:18.461Z,6.56
2022-12-25T01:49:49.519Z,6.66
2022-12-25T01:52:24.201Z,6.64
2022-12-25T01:55:04.055Z,6.63
2022-12-25T01:57:34.265Z,6.63
2022-12-25T02:00:01.883Z,6.56
2022-12-25T02:02:29.603Z,6.60
2022-12-25T02:05:30.980Z,6.59
2022-12-25T02:08:19.514Z,6.63
2022-12-25T02:10:46.861Z,6.55
2022-12-25T02:13:16.885Z,6.53
2022-12-25T02:16:21.022Z,6.49
2022-12-25T02:18:58.494Z,6.48
2022-12-25T02:22:01.980Z,6.37
2022-12-25T02:24:31.535Z,6.31
2022-12-25T02:27:11.120Z,6.22
2022-12-25T02:29:56.116Z,6.14
2022-12-25T02:32:31.147Z,6.13
2022-12-25T02:35:16.046Z,5.99
2022-12-25T02:38:05.556Z,5.94
2022-12-25T02:40:42.676Z,5.79
2022-12-25T02:43:35.938Z,5.72
2022-12-25T02:46:28.500Z,5.72
2022-12-25T02:49:18.348Z,5.63
2022-12-25T02:52:07.842Z,5.62
2022-12-25T02:54:56.868Z,5.53
2022-12-25T02:57:48.097Z,5.51
2022-12-25T03:00:33.871Z,5.43
2022-12-25T03:03:23.034Z,5.39
2022-12-25T03:06:27.399Z,5.28
2022-12-25T03:09:17.885Z,5.15
2022-12-25T03:11:49.998Z,5.08
2022-12-25T03:14:35.311Z,5.00
2022-12-25T03:17:02.284Z,5.08
2022-12-25T03:20:06.860Z,5.00
2022-12-25T03:22:52.966Z,4.97
2022-12-25T03:25:38.444Z,4.96
2022-12-25T03:28:06.074Z,4.94
2022-12-25T03:30:56.132Z,4.88
2022-12-25T03:34:04.837Z,4.80
2022-12-25T03:36:38.871Z,4.68
2022-12-25T03:39:19.409Z,4.79
2022-12-25T03:42:19.376Z,4.84
2022-12-25T03:45:11.017Z,4.71
2022-12-25T03:48:05.985Z,4.69
2022-12-25T03:51:18.747Z,4.62
2022-12-25T03:54:16.044Z,4.57
2022-12-25T03:57:02.119Z,4.52
2022-12-25T03:59:47.478Z,4.35
2022-12-25T04:02:32.697Z,4.39
2022-12-25T04:05:18.241Z,4.32
2022-12-25T04:08:03.720Z,4.36
2022-12-25T04:10:49.076Z,4.36
2022-12-25T04:13:34.860Z,4.21
2022-12-25T04:16:20.012Z,4.15
2022-12-25T04:19:05.473Z,4.27
2022-12-25T04:21:50.847Z,4.29
2022-12-25T04:24:36.071Z,4.27
2022-12-25T04:27:21.739Z,4.27
2022-12-25T04:30:07.035Z,4.28
2022-12-25T04:32:52.412Z,4.18
2022-12-25T04:35:37.594Z,4.00
2022-12-25T04:38:04.362Z,3.95
2022-12-25T04:40:30.993Z,3.94
2022-12-25T04:42:57.692Z,3.90
2022-12-25T04:45:24.303Z,3.68
2022-12-25T04:47:51.046Z,3.61
2022-12-25T04:50:17.733Z,3.62
2022-12-25T04:52:44.532Z,3.65
2022-12-25T04:55:11.767Z,3.59
2022-12-25T04:57:38.741Z,3.61
2022-12-25T05:00:06.813Z,3.72
2022-12-25T05:02:34.028Z,3.69
2022-12-25T05:05:00.879Z,3.64
2022-12-25T05:07:27.574Z,3.60
2022-12-25T05:09:54.244Z,3.59
2022-12-25T05:12:21.127Z,3.48
2022-12-25T05:14:47.781Z,3.50
2022-12-25T05:17:14.519Z,3.55
2022-12-25T05:19:41.166Z,3.59
2022-12-25T05:22:07.878Z,3.58
2022-12-25T05:24:34.570Z,3.61
2022-12-25T05:27:01.308Z,3.61
2022-12-25T05:29:28.092Z,3.60
2022-12-25T05:31:54.868Z,3.56
2022-12-25T05:34:21.663Z,3.57
2022-12-25T05:36:48.332Z,3.59
2022-12-25T05:39:15.114Z,3.63
2022-12-25T05:41:41.785Z,3.64
2022-12-25T05:44:08.562Z,3.65
2022-12-25T05:46:35.276Z,3.68
2022-12-25T05:49:01.999Z,3.71
2022-12-25T05:51:28.698Z,3.67
2022-12-25T05:53:55.418Z,3.68
2022-12-25T05:56:22.149Z,3.68
2022-12-25T05:58:48.891Z,3.58
2022-12-25T06:01:21.742Z,3.60
2022-12-25T06:03:48.511Z,3.60
2022-12-25T06:06:15.824Z,3.67
2022-12-25T06:08:42.654Z,3.64
2022-12-25T06:11:10.464Z,3.67
2022-12-25T06:13:37.428Z,3.64
2022-12-25T06:16:09.700Z,3.70
2022-12-25T06:18:41.678Z,3.72
2022-12-25T06:21:10.062Z,3.64
2022-12-25T06:23:38.173Z,3.68
2022-12-25T06:26:10.864Z,3.67
2022-12-25T06:28:37.814Z,3.65
2022-12-25T06:31:12.439Z,3.62
2022-12-25T06:33:39.564Z,3.70
2022-12-25T06:36:11.510Z,3.71
2022-12-25T06:38:38.592Z,3.77
2022-12-25T06:41:13.799Z,3.68
2022-12-25T06:43:40.496Z,3.79
2022-12-25T06:46:10.544Z,3.86
2022-12-25T06:48:38.879Z,3.88
2022-12-25T06:51:07.053Z,3.84
2022-12-25T06:53:40.635Z,3.78
2022-12-25T06:56:10.740Z,3.75
2022-12-25T06:58:37.550Z,3.73
2022-12-25T07:01:15.177Z,3.59
2022-12-25T07:03:44.068Z,3.54
2022-12-25T07:06:11.166Z,3.40
2022-12-25T07:08:38.013Z,3.39
2022-12-25T07:11:05.091Z,3.31
2022-12-25T07:13:31.958Z,3.26
2022-12-25T07:16:03.980Z,3.20
2022-12-25T07:18:31.302Z,3.17
2022-12-25T07:20:59.693Z,3.16
2022-12-25T07:23:26.911Z,3.23
2022-12-25T07:25:58.154Z,3.16
2022-12-25T07:28:26.027Z,3.21
2022-12-25T07:30:53.451Z,3.09
2022-12-25T07:33:20.549Z,3.04
2022-12-25T07:35:47.271Z,3.06
2022-12-25T07:38:14.217Z,3.02
2022-12-25T07:40:40.979Z,3.03
2022-12-25T07:43:07.784Z,2.95
2022-12-25T07:45:34.569Z,2.96
2022-12-25T07:48:05.293Z,2.97
2022-12-25T07:50:33.337Z,3.00
2022-12-25T07:53:00.021Z,3.04
2022-12-25T07:55:26.855Z,3.08
2022-12-25T07:57:53.578Z,3.03
2022-12-25T08:00:20.716Z,3.06
2022-12-25T08:02:50.794Z,3.06
2022-12-25T08:05:17.761Z,3.15
2022-12-25T08:07:44.609Z,3.14
2022-12-25T08:10:11.570Z,3.20
2022-12-25T08:12:38.325Z,3.21
2022-12-25T08:15:05.485Z,3.26
2022-12-25T08:17:35.247Z,3.26
2022-12-25T08:20:02.020Z,3.28
2022-12-25T08:22:28.803Z,3.32
2022-12-25T08:24:55.615Z,3.36
2022-12-25T08:27:22.323Z,3.46
2022-12-25T08:29:49.277Z,3.60
2022-12-25T08:32:15.982Z,3.59
2022-12-25T08:34:42.885Z,3.49
2022-12-25T08:37:09.660Z,3.70
2022-12-25T08:39:36.531Z,3.72
2022-12-25T08:42:03.601Z,3.71
2022-12-25T08:44:30.410Z,3.78
2022-12-25T08:46:57.273Z,3.78
2022-12-25T08:49:27.419Z,3.79
2022-12-25T08:51:54.348Z,3.80
2022-12-25T08:54:21.068Z,3.84
2022-12-25T08:56:48.008Z,3.90
2022-12-25T08:59:14.875Z,3.85
2022-12-25T09:01:42.055Z,3.86
2022-12-25T09:04:09.270Z,3.92
2022-12-25T09:06:36.095Z,3.93
2022-12-25T09:09:03.005Z,3.94
2022-12-25T09:11:30.163Z,4.01
2022-12-25T09:13:57.247Z,4.00
2022-12-25T09:16:24.034Z,4.14
2022-12-25T09:18:51.098Z,4.07
2022-12-25T09:21:19.120Z,4.08
2022-12-25T09:23:45.956Z,4.29
2022-12-25T09:26:15.483Z,4.31
2022-12-25T09:28:50.695Z,4.27
2022-12-25T09:31:18.804Z,4.30
2022-12-25T09:33:45.707Z,4.47
2022-12-25T09:36:12.548Z,4.46
2022-12-25T09:38:39.777Z,4.39
2022-12-25T09:41:48.781Z,4.48
2022-12-25T09:44:26.360Z,4.49
2022-12-25T09:46:58.495Z,4.59
2022-12-25T09:49:37.873Z,4.57
2022-12-25T09:52:18.353Z,4.62
2022-12-25T09:54:54.541Z,4.63
2022-12-25T09:57:21.500Z,4.72
2022-12-25T09:59:49.683Z,4.73
2022-12-25T10:02:38.443Z,4.78
2022-12-25T10:05:17.455Z,4.75
2022-12-25T10:07:58.678Z,4.81
2022-12-25T10:11:04.063Z,4.84
2022-12-25T10:13:53.276Z,4.96
2022-12-25T10:16:45.068Z,5.02
2022-12-25T10:19:41.645Z,5.09
2022-12-25T10:22:14.910Z,5.05
2022-12-25T10:24:49.637Z,5.13
2022-12-25T10:27:30.112Z,5.09
2022-12-25T10:29:57.235Z,5.08
2022-12-25T10:32:24.008Z,5.23
2022-12-25T10:34:50.973Z,5.41
2022-12-25T10:37:18.059Z,5.20
2022-12-25T10:39:51.233Z,5.31
2022-12-25T10:42:23.962Z,5.25
2022-12-25T10:45:04.885Z,5.28
2022-12-25T10:47:37.218Z,5.35
2022-12-25T10:50:24.807Z,5.36
2022-12-25T10:53:14.050Z,5.34
2022-12-25T10:55:41.201Z,5.35
2022-12-25T10:58:08.479Z,5.43
2022-12-25T11:00:35.588Z,5.47
2022-12-25T11:03:02.532Z,5.48
2022-12-25T11:05:33.270Z,5.39
2022-12-25T11:08:02.224Z,5.45
2022-12-25T11:10:36.687Z,5.48
2022-12-25T11:13:09.157Z,5.54
2022-12-25T11:15:45.177Z,5.62
2022-12-25T11:18:22.036Z,5.62
2022-12-25T11:20:58.123Z,5.64
2022-12-25T11:23:27.214Z,5.65
2022-12-25T11:26:06.169Z,5.57
2022-12-25T11:28:37.272Z,5.59
2022-12-25T11:31:13.300Z,5.64
2022-12-25T11:33:51.693Z,5.61
2022-12-25T11:36:38.752Z,5.67
2022-12-25T11:39:21.165Z,5.68
2022-12-25T11:41:49.762Z,5.69
2022-12-25T11:45:01.129Z,5.77
2022-12-25T11:47:51.840Z,5.80
2022-12-25T11:50:46.429Z,5.82
2022-12-25T11:53:36.059Z,5.87
2022-12-25T11:56:08.396Z,5.81
2022-12-25T11:58:59.057Z,5.86
2022-12-25T12:01:42.105Z,5.83
2022-12-25T12:04:25.805Z,5.90
2022-12-25T12:06:58.865Z,5.87
2022-12-25T12:09:37.807Z,5.82
2022-12-25T12:12:16.742Z,5.91
2022-12-25T12:14:53.093Z,5.97
2022-12-25T12:17:20.275Z,5.91
2022-12-25T12:19:47.106Z,5.90
2022-12-25T12:22:27.539Z,5.90
2022-12-25T12:25:07.043Z,5.94
2022-12-25T12:27:39.723Z,5.93
2022-12-25T12:30:23.222Z,5.89
2022-12-25T12:32:53.795Z,6.01
2022-12-25T12:35:30.356Z,6.04
2022-12-25T12:38:09.340Z,6.01
2022-12-25T12:40:54.556Z,6.08
2022-12-25T12:43:53.576Z,6.12
2022-12-25T12:46:30.678Z,6.11
2022-12-25T12:49:25.644Z,6.09
2022-12-25T12:52:06.862Z,6.06
2022-12-25T12:54:49.288Z,6.10
2022-12-25T12:57:42.847Z,6.08
2022-12-25T13:00:18.518Z,6.05
2022-12-25T13:03:26.752Z,6.10
2022-12-25T13:05:56.475Z,6.08
2022-12-25T13:08:42.734Z,6.05
2022-12-25T13:11:21.195Z,6.00
2022-12-25T13:13:50.758Z,5.97
2022-12-25T13:16:40.900Z,5.95
2022-12-25T13:19:27.562Z,5.90
2022-12-25T13:24:55.456Z,5.96
2022-12-25T13:27:33.444Z,5.95
2022-12-25T13:30:00.691Z,5.90
2022-12-25T13:32:31.881Z,5.86
2022-12-25T13:34:59.985Z,5.81
2022-12-25T13:37:28.850Z,5.91
2022-12-25T13:40:04.092Z,5.85
2022-12-25T13:42:36.164Z,5.86
2022-12-25T13:45:06.526Z,5.81
2022-12-25T13:47:38.831Z,5.81
2022-12-25T13:50:24.519Z,5.85
2022-12-25T13:53:02.973Z,5.85
2022-12-25T13:55:30.545Z,5.82
2022-12-25T13:58:03.618Z,5.79
2022-12-25T14:00:51.311Z,5.83
2022-12-25T14:03:26.583Z,5.82
2022-12-25T14:06:02.180Z,5.86
2022-12-25T14:08:32.091Z,5.93
2022-12-25T14:11:03.879Z,5.81
2022-12-25T14:13:32.832Z,5.80
2022-12-25T14:16:01.709Z,5.80
2022-12-25T14:18:29.937Z,5.89
2022-12-25T14:21:15.605Z,5.83
2022-12-25T14:23:50.147Z,5.87
2022-12-25T14:29:23.685Z,5.87
2022-12-25T14:31:55.965Z,5.87
2022-12-25T14:34:24.755Z,5.83
2022-12-25T14:36:53.033Z,5.83
2022-12-25T14:39:34.706Z,5.81
2022-12-25T14:42:13.582Z,5.83
2022-12-25T14:44:41.059Z,5.83
2022-12-25T14:47:10.835Z,5.83
2022-12-25T14:49:38.555Z,5.79
2022-12-25T14:52:22.991Z,5.84
2022-12-25T14:55:08.768Z,5.82
2022-12-25T14:57:40.495Z,5.86
2022-12-25T15:00:24.655Z,5.91
2022-12-25T15:02:53.582Z,5.84
2022-12-25T15:05:38.801Z,5.86
2022-12-25T15:08:08.362Z,5.89
2022-12-25T15:13:28.053Z,5.83
2022-12-25T15:16:02.226Z,5.86
2022-12-25T15:18:34.480Z,5.85
2022-12-25T15:21:01.293Z,5.87
2022-12-25T15:23:28.530Z,5.91
2022-12-25T15:25:57.481Z,5.81
2022-12-25T15:28:24.315Z,5.78
2022-12-25T15:31:19.727Z,5.80
2022-12-25T15:33:46.749Z,5.78
2022-12-25T15:36:13.476Z,5.80
2022-12-25T15:38:40.206Z,5.81
2022-12-25T15:41:47.851Z,5.82
2022-12-25T15:44:15.655Z,5.76
2022-12-25T15:46:42.721Z,5.82
2022-12-25T15:49:10.895Z,5.79
2022-12-25T15:51:38.076Z,5.81
2022-12-25T15:54:04.889Z,5.76
2022-12-25T15:56:42.201Z,5.79
2022-12-25T15:59:13.219Z,5.83
2022-12-25T16:01:43.243Z,5.82
2022-12-25T16:04:10.137Z,5.76
2022-12-25T16:06:36.867Z,5.77
2022-12-25T16:09:03.711Z,5.80
2022-12-25T16:11:30.589Z,5.82
2022-12-25T16:13:57.571Z,5.77
2022-12-25T16:16:24.411Z,5.72
2022-12-25T16:18:51.171Z,5.80
2022-12-25T16:21:21.051Z,5.77
2022-12-25T16:23:48.120Z,5.78
2022-12-25T16:26:14.909Z,5.75
2022-12-25T16:28:41.851Z,5.77
2022-12-25T16:31:08.824Z,5.81
2022-12-25T16:33:36.420Z,5.85
2022-12-25T16:36:03.317Z,5.81
2022-12-25T16:38:40.788Z,5.79
2022-12-25T16:41:09.515Z,5.85
2022-12-25T16:43:37.150Z,5.84
2022-12-25T16:46:15.276Z,5.86
2022-12-25T16:48:42.454Z,5.89
2022-12-25T16:51:20.989Z,5.87
2022-12-25T16:53:48.169Z,5.85
2022-12-25T16:56:17.346Z,5.92
2022-12-25T16:58:46.668Z,5.93
2022-12-25T17:01:19.894Z,5.89
2022-12-25T17:03:47.367Z,5.99
2022-12-25T17:06:20.784Z,5.95
2022-12-25T17:08:47.793Z,5.95
2022-12-25T17:11:15.770Z,6.01
2022-12-25T17:13:48.204Z,6.04
2022-12-25T17:16:17.394Z,6.02
2022-12-25T17:18:44.631Z,6.05
2022-12-25T17:21:11.905Z,6.02
2022-12-25T17:23:38.645Z,6.01
2022-12-25T17:26:06.212Z,6.09
2022-12-25T17:28:34.688Z,6.10
2022-12-25T17:31:06.219Z,6.02
2022-12-25T17:33:36.051Z,6.07
2022-12-25T17:36:05.216Z,6.00
2022-12-25T17:38:33.114Z,6.00
2022-12-25T17:41:01.599Z,5.97
2022-12-25T17:43:28.916Z,6.01
2022-12-25T17:45:55.624Z,6.05
2022-12-25T17:48:22.466Z,6.01
2022-12-25T17:50:49.475Z,6.06
2022-12-25T17:53:16.454Z,6.06
2022-12-25T17:55:43.873Z,6.00
2022-12-25T17:58:10.806Z,6.01
2022-12-25T18:00:37.511Z,5.98
2022-12-25T18:03:11.200Z,6.08
2022-12-25T18:05:38.707Z,6.07
2022-12-25T18:08:05.528Z,6.05
2022-12-25T18:10:40.347Z,6.08
2022-12-25T18:13:07.555Z,6.10
2022-12-25T18:15:39.511Z,6.11
2022-12-25T18:18:07.946Z,6.10
2022-12-25T18:20:39.862Z,6.10
2022-12-25T18:23:10.032Z,6.09
2022-12-25T18:25:41.550Z,6.12
2022-12-25T18:28:09.700Z,6.11
2022-12-25T18:30:43.915Z,6.10
2022-12-25T18:33:11.342Z,6.12
2022-12-25T18:35:40.184Z,6.12
2022-12-25T18:38:09.195Z,6.13
2022-12-25T18:40:43.258Z,6.15
2022-12-25T18:43:10.974Z,6.12
2022-12-25T18:45:38.357Z,6.16
2022-12-25T18:48:06.174Z,6.17
2022-12-25T18:50:34.296Z,6.15
2022-12-25T18:53:01.693Z,6.20
2022-12-25T18:55:28.951Z,6.15
2022-12-25T18:57:56.455Z,6.16
2022-12-25T19:00:23.505Z,6.24
2022-12-25T19:02:51.072Z,6.23
2022-12-25T19:05:18.160Z,6.23
2022-12-25T19:07:45.095Z,6.23
2022-12-25T19:10:11.981Z,6.23
2022-12-25T19:12:38.865Z,6.22
2022-12-25T19:15:06.217Z,6.22
2022-12-25T19:17:36.163Z,6.23
2022-12-25T19:20:03.418Z,6.25
2022-12-25T19:22:30.468Z,6.21
2022-12-25T19:24:57.490Z,6.26
2022-12-25T19:27:24.464Z,6.26
2022-12-25T19:29:54.609Z,6.20
2022-12-25T19:32:22.072Z,6.21
2022-12-25T19:34:48.849Z,6.24
2022-12-25T19:37:16.021Z,6.23
2022-12-25T19:39:46.682Z,6.21
2022-12-25T19:42:16.361Z,6.19
2022-12-25T19:44:43.554Z,6.19
2022-12-25T19:47:11.378Z,6.25
2022-12-25T19:49:40.584Z,6.26
2022-12-25T19:52:08.027Z,6.20
2022-12-25T19:54:34.931Z,6.24
2022-12-25T19:57:01.778Z,6.25
2022-12-25T19:59:28.592Z,6.25
2022-12-25T20:01:55.582Z,6.28
2022-12-25T20:04:22.819Z,6.30
2022-12-25T20:06:49.640Z,6.34
2022-12-25T20:09:21.194Z,6.29
2022-12-25T20:11:48.575Z,6.26
2022-12-25T20:14:16.587Z,6.27
2022-12-25T20:16:46.754Z,6.31
2022-12-25T20:19:14.473Z,6.33
2022-12-25T20:21:41.700Z,6.35
2022-12-25T20:24:10.872Z,6.33
2022-12-25T20:26:38.793Z,6.36
2022-12-25T20:29:05.864Z,6.35
2022-12-25T20:31:35.548Z,6.38
2022-12-25T20:34:08.400Z,6.33
2022-12-25T20:36:37.743Z,6.41
2022-12-25T20:39:10.179Z,6.37
2022-12-25T20:41:37.866Z,6.43
2022-12-25T20:44:06.769Z,6.36
2022-12-25T20:46:33.676Z,6.36
2022-12-25T20:49:01.783Z,6.38
2022-12-25T20:51:28.683Z,6.36
2022-12-25T20:53:55.803Z,6.37
2022-12-25T20:56:25.211Z,6.37
2022-12-25T20:58:57.062Z,6.36
2022-12-25T21:01:24.490Z,6.30
2022-12-25T21:03:51.811Z,6.30
2022-12-25T21:06:18.909Z,6.31
2022-12-25T21:08:45.711Z,6.33
2022-12-25T21:11:14.159Z,6.34
2022-12-25T21:13:42.757Z,6.38
2022-12-25T21:16:12.793Z,6.36
2022-12-25T21:18:40.196Z,6.35
2022-12-25T21:21:07.902Z,6.37
2022-12-25T21:23:36.550Z,6.33
2022-12-25T21:26:28.190Z,6.28
2022-12-25T21:28:57.874Z,6.31
2022-12-25T21:31:25.189Z,6.24
2022-12-25T21:33:53.971Z,6.19
2022-12-25T21:36:30.002Z,6.26
2022-12-25T21:39:05.956Z,6.23
2022-12-25T21:41:34.277Z,6.29
2022-12-25T21:44:01.685Z,6.21
2022-12-25T21:46:29.121Z,6.24
2022-12-25T21:48:56.635Z,6.23
2022-12-25T21:51:45.733Z,6.26
2022-12-25T21:54:14.040Z,6.26
2022-12-25T21:56:45.137Z,6.25
2022-12-25T21:59:17.963Z,6.28
2022-12-25T22:01:45.605Z,6.24
2022-12-25T22:04:14.027Z,6.23
2022-12-25T22:07:00.324Z,6.30
2022-12-25T22:09:27.035Z,6.24
2022-12-25T22:12:12.517Z,6.19
2022-12-25T22:14:54.982Z,6.23
2022-12-25T22:17:46.884Z,6.21
2022-12-25T22:20:17.059Z,6.27
2022-12-25T22:22:44.278Z,6.24
2022-12-25T22:25:12.230Z,6.25
2022-12-25T22:27:40.778Z,6.26
2022-12-25T22:30:11.023Z,6.25
2022-12-25T22:32:37.881Z,6.22
2022-12-25T22:35:05.133Z,6.28
2022-12-25T22:37:31.940Z,6.17
2022-12-25T22:40:00.682Z,6.22
2022-12-25T22:42:27.641Z,6.15
2022-12-25T22:44:54.409Z,6.16
2022-12-25T22:47:21.201Z,6.16
2022-12-25T22:49:48.539Z,6.19
2022-12-25T22:52:15.421Z,6.23
2022-12-25T22:54:42.156Z,6.23
2022-12-25T22:57:08.895Z,6.28
2022-12-25T22:59:35.629Z,6.24
2022-12-25T23:02:02.520Z,6.31
2022-12-25T23:04:29.560Z,6.30
2022-12-25T23:06:56.804Z,6.24
2022-12-25T23:09:28.008Z,6.24
2022-12-25T23:11:56.493Z,6.26
2022-12-25T23:14:40.712Z,6.21
2022-12-25T23:17:31.812Z,6.25
2022-12-25T23:20:19.073Z,6.30
2022-12-25T23:23:05.052Z,6.33
2022-12-25T23:25:53.029Z,6.37
2022-12-25T23:28:40.669Z,6.29
2022-12-25T23:31:07.832Z,6.39
2022-12-25T23:33:34.950Z,6.37
2022-12-25T23:36:01.704Z,6.34
2022-12-25T23:38:28.469Z,6.39
2022-12-25T23:40:55.322Z,6.37
2022-12-25T23:43:22.252Z,6.43
2022-12-25T23:45:49.020Z,6.45
2022-12-25T23:48:15.826Z,6.37
2022-12-25T23:50:42.586Z,6.41
2022-12-25T23:53:10.963Z,6.42
2022-12-25T23:55:37.942Z,6.44
2022-12-25T23:58:05.151Z,6.43
